createdAt,value
2018-06-30T00:00:35.666Z,97.47
2018-06-30T00:01:35.647Z,97.57
2018-06-30T00:02:35.667Z,97.66
2018-06-30T00:03:35.652Z,97.76
2018-06-30T00:04:35.608Z,98.14
2018-06-30T00:05:35.595Z,97.86
2018-06-30T00:06:35.600Z,98.14
2018-06-30T00:07:35.574Z,98.05
2018-06-30T00:08:35.567Z,98.82
2018-06-30T00:09:35.546Z,98.82
2018-06-30T00:10:35.540Z,98.43
2018-06-30T00:11:35.526Z,98.72
2018-06-30T00:12:35.515Z,98.82
2018-06-30T00:13:35.505Z,99.30
2018-06-30T00:14:35.479Z,99.40
2018-06-30T00:15:35.494Z,99.20
2018-06-30T00:16:35.449Z,99.97
2018-06-30T00:17:35.451Z,99.73
2018-06-30T00:18:35.434Z,99.99
2018-06-30T00:19:35.449Z,99.92
2018-06-30T00:20:35.412Z,99.92
2018-06-30T00:21:35.391Z,99.99
2018-06-30T00:22:35.416Z,99.99
2018-06-30T00:23:35.385Z,99.99
2018-06-30T00:24:35.383Z,99.99
2018-06-30T00:25:35.350Z,99.99
2018-06-30T00:26:35.325Z,99.99
2018-06-30T00:27:35.317Z,99.99
2018-06-30T00:28:35.313Z,99.99
2018-06-30T00:29:35.316Z,99.99
2018-06-30T00:30:35.280Z,99.99
2018-06-30T00:31:35.258Z,99.99
2018-06-30T00:32:35.244Z,99.99
2018-06-30T00:33:35.255Z,99.99
2018-06-30T00:34:35.226Z,99.99
2018-06-30T00:35:35.209Z,99.99
2018-06-30T00:36:35.196Z,99.99
2018-06-30T00:37:35.404Z,99.99
2018-06-30T00:38:35.182Z,99.99
2018-06-30T00:39:35.165Z,99.99
2018-06-30T00:40:35.149Z,99.99
2018-06-30T00:41:35.132Z,99.99
2018-06-30T00:42:35.132Z,99.99
2018-06-30T00:43:35.116Z,99.99
2018-06-30T00:44:35.107Z,99.99
2018-06-30T00:45:35.073Z,99.99
2018-06-30T00:46:35.087Z,99.99
2018-06-30T00:47:35.057Z,99.99
2018-06-30T00:48:35.161Z,99.99
2018-06-30T00:49:35.031Z,99.99
2018-06-30T00:50:35.012Z,99.99
2018-06-30T00:51:34.996Z,99.99
2018-06-30T00:52:34.984Z,99.99
2018-06-30T00:53:34.982Z,99.99
2018-06-30T00:54:35.001Z,99.99
2018-06-30T00:55:34.944Z,99.99
2018-06-30T00:56:34.930Z,99.99
2018-06-30T00:57:34.916Z,99.99
2018-06-30T00:58:34.908Z,99.99
2018-06-30T00:59:34.891Z,99.99
2018-06-30T01:00:34.887Z,99.99
2018-06-30T01:01:34.882Z,99.99
2018-06-30T01:02:34.850Z,99.99
2018-06-30T01:03:34.846Z,99.99
2018-06-30T01:04:34.825Z,99.99
2018-06-30T01:05:34.813Z,99.99
2018-06-30T01:06:34.806Z,99.99
2018-06-30T01:07:34.795Z,99.99
2018-06-30T01:08:34.769Z,99.99
2018-06-30T01:09:34.760Z,99.99
2018-06-30T01:10:34.745Z,99.99
2018-06-30T01:11:34.739Z,99.99
2018-06-30T01:12:34.714Z,99.99
2018-06-30T01:13:34.706Z,99.99
2018-06-30T01:14:34.698Z,99.99
2018-06-30T01:15:34.676Z,99.99
2018-06-30T01:16:34.663Z,99.99
2018-06-30T01:17:34.651Z,99.99
2018-06-30T01:18:34.649Z,99.99
2018-06-30T01:19:34.648Z,99.99
2018-06-30T01:20:34.614Z,99.99
2018-06-30T01:21:34.601Z,99.99
2018-06-30T01:22:34.603Z,99.99
2018-06-30T01:23:34.579Z,99.99
2018-06-30T01:24:34.565Z,99.99
2018-06-30T01:25:34.557Z,99.99
2018-06-30T01:26:34.535Z,99.99
2018-06-30T01:27:34.595Z,99.99
2018-06-30T01:28:34.507Z,99.99
2018-06-30T01:29:34.495Z,99.99
2018-06-30T01:30:34.497Z,99.99
2018-06-30T01:31:34.470Z,99.99
2018-06-30T01:32:34.482Z,99.99
2018-06-30T01:33:34.441Z,99.99
2018-06-30T01:34:34.433Z,99.99
2018-06-30T01:35:34.409Z,99.99
2018-06-30T01:36:34.398Z,99.99
2018-06-30T01:37:34.388Z,99.99
2018-06-30T01:38:34.372Z,99.99
2018-06-30T01:39:34.359Z,99.99
2018-06-30T01:40:34.417Z,99.99
2018-06-30T01:41:34.339Z,99.99
2018-06-30T01:42:34.344Z,99.99
2018-06-30T01:43:34.313Z,99.99
2018-06-30T01:44:34.296Z,99.99
2018-06-30T01:45:34.293Z,99.99
2018-06-30T01:46:34.273Z,99.99
2018-06-30T01:47:34.266Z,99.99
2018-06-30T01:48:34.246Z,99.99
2018-06-30T01:49:34.232Z,99.99
2018-06-30T01:50:34.239Z,99.99
2018-06-30T01:51:34.223Z,99.99
2018-06-30T01:52:34.183Z,99.99
2018-06-30T01:53:34.176Z,99.99
2018-06-30T01:54:34.160Z,99.99
2018-06-30T01:55:34.171Z,99.99
2018-06-30T01:56:34.134Z,99.99
2018-06-30T01:57:34.116Z,99.99
2018-06-30T01:58:34.099Z,99.99
2018-06-30T01:59:34.122Z,99.99
2018-06-30T02:00:34.107Z,99.99
2018-06-30T02:01:34.067Z,99.99
2018-06-30T02:02:34.051Z,99.99
2018-06-30T02:03:34.039Z,99.99
2018-06-30T02:04:34.031Z,99.99
2018-06-30T02:05:34.007Z,99.99
2018-06-30T02:06:34.002Z,99.99
2018-06-30T02:07:33.986Z,99.99
2018-06-30T02:08:33.975Z,99.99
2018-06-30T02:09:33.957Z,99.99
2018-06-30T02:10:33.947Z,99.99
2018-06-30T02:11:33.935Z,99.99
2018-06-30T02:12:33.919Z,99.99
2018-06-30T02:13:33.908Z,99.99
2018-06-30T02:14:33.895Z,99.99
2018-06-30T02:15:33.901Z,99.99
2018-06-30T02:16:33.902Z,99.99
2018-06-30T02:17:33.869Z,99.99
2018-06-30T02:18:33.837Z,99.99
2018-06-30T02:19:33.850Z,99.99
2018-06-30T02:20:33.833Z,99.99
2018-06-30T02:21:33.845Z,99.99
2018-06-30T02:22:33.789Z,99.82
2018-06-30T02:23:33.767Z,99.73
2018-06-30T02:24:33.765Z,99.99
2018-06-30T02:25:33.763Z,99.92
2018-06-30T02:26:33.749Z,99.82
2018-06-30T02:27:33.771Z,99.99
2018-06-30T02:28:33.704Z,99.99
2018-06-30T02:29:33.710Z,99.99
2018-06-30T02:30:33.677Z,99.99
2018-06-30T02:31:33.667Z,99.99
2018-06-30T02:32:33.655Z,99.99
2018-06-30T02:33:33.640Z,99.82
2018-06-30T02:34:33.627Z,99.82
2018-06-30T02:35:33.622Z,99.99
2018-06-30T02:36:33.601Z,99.99
2018-06-30T02:37:33.581Z,99.44
2018-06-30T02:38:33.576Z,99.44
2018-06-30T02:39:33.568Z,99.54
2018-06-30T02:40:33.561Z,99.44
2018-06-30T02:41:33.581Z,99.99
2018-06-30T02:42:33.523Z,99.49
2018-06-30T02:43:33.506Z,99.68
2018-06-30T02:44:33.498Z,99.99
2018-06-30T02:45:33.481Z,99.96
2018-06-30T02:46:33.463Z,99.96
2018-06-30T02:47:33.453Z,99.87
2018-06-30T02:48:33.449Z,99.99
2018-06-30T02:49:33.437Z,99.99
2018-06-30T02:50:33.414Z,99.99
2018-06-30T02:51:33.470Z,99.99
2018-06-30T02:52:33.385Z,99.99
2018-06-30T02:53:33.374Z,99.99
2018-06-30T02:54:33.370Z,99.99
2018-06-30T02:55:33.359Z,99.68
2018-06-30T02:56:33.350Z,99.77
2018-06-30T02:57:33.319Z,99.68
2018-06-30T02:58:33.309Z,99.96
2018-06-30T02:59:33.303Z,99.99
2018-06-30T03:00:33.279Z,99.99
2018-06-30T03:01:33.278Z,99.68
2018-06-30T03:02:33.259Z,99.82
2018-06-30T03:03:33.246Z,99.99
2018-06-30T03:04:33.238Z,99.96
2018-06-30T03:05:33.224Z,99.99
2018-06-30T03:06:33.217Z,99.68
2018-06-30T03:07:33.192Z,99.87
2018-06-30T03:08:33.175Z,99.58
2018-06-30T03:09:33.166Z,99.96
2018-06-30T03:10:33.149Z,99.77
2018-06-30T03:11:33.139Z,99.99
2018-06-30T03:12:33.130Z,99.99
2018-06-30T03:13:33.106Z,99.58
2018-06-30T03:14:33.099Z,99.96
2018-06-30T03:15:33.090Z,99.77
2018-06-30T03:16:33.076Z,99.99
2018-06-30T03:17:33.075Z,99.99
2018-06-30T03:18:33.048Z,99.99
2018-06-30T03:19:33.032Z,99.99
2018-06-30T03:20:33.024Z,99.77
2018-06-30T03:21:33.008Z,99.99
2018-06-30T03:22:33.002Z,99.99
2018-06-30T03:23:32.967Z,99.96
2018-06-30T03:24:32.959Z,99.99
2018-06-30T03:25:32.999Z,99.99
2018-06-30T03:26:33.122Z,99.82
2018-06-30T03:27:32.950Z,99.49
2018-06-30T03:28:32.906Z,99.96
2018-06-30T03:29:32.895Z,99.99
2018-06-30T03:30:32.907Z,99.68
2018-06-30T03:31:32.914Z,99.99
2018-06-30T03:32:32.861Z,99.68
2018-06-30T03:33:32.835Z,99.49
2018-06-30T03:34:32.827Z,99.39
2018-06-30T03:35:32.813Z,99.87
2018-06-30T03:36:32.807Z,99.96
2018-06-30T03:37:32.783Z,98.91
2018-06-30T03:38:32.818Z,99.25
2018-06-30T03:39:32.791Z,98.91
2018-06-30T03:40:32.746Z,99.49
2018-06-30T03:41:32.748Z,98.86
2018-06-30T03:42:32.720Z,99.15
2018-06-30T03:43:32.708Z,98.86
2018-06-30T03:44:32.689Z,98.96
2018-06-30T03:45:32.678Z,98.77
2018-06-30T03:46:32.703Z,98.77
2018-06-30T03:47:32.652Z,98.77
2018-06-30T03:48:32.640Z,97.91
2018-06-30T03:49:32.620Z,98.00
2018-06-30T03:50:32.614Z,98.10
2018-06-30T03:51:32.618Z,98.29
2018-06-30T03:52:32.585Z,98.38
2018-06-30T03:53:32.566Z,97.52
2018-06-30T03:54:32.577Z,97.42
2018-06-30T03:55:32.563Z,97.52
2018-06-30T03:56:32.536Z,97.42
2018-06-30T03:57:32.518Z,96.47
2018-06-30T03:58:32.501Z,96.94
2018-06-30T03:59:32.542Z,97.04
2018-06-30T04:00:32.497Z,96.75
2018-06-30T04:01:32.472Z,96.94
2018-06-30T04:02:32.475Z,97.61
2018-06-30T04:03:32.440Z,96.75
2018-06-30T04:04:32.432Z,96.18
2018-06-30T04:05:32.412Z,96.56
2018-06-30T04:06:32.405Z,96.66
2018-06-30T04:07:32.389Z,96.94
2018-06-30T04:08:32.377Z,96.66
2018-06-30T04:09:32.379Z,96.56
2018-06-30T04:10:32.357Z,96.27
2018-06-30T04:11:32.363Z,96.18
2018-06-30T04:12:32.341Z,95.89
2018-06-30T04:13:32.312Z,95.12
2018-06-30T04:14:32.298Z,95.55
2018-06-30T04:15:32.289Z,95.45
2018-06-30T04:16:32.269Z,95.55
2018-06-30T04:17:32.273Z,95.75
2018-06-30T04:18:32.255Z,95.60
2018-06-30T04:19:32.234Z,95.03
2018-06-30T04:20:32.232Z,94.88
2018-06-30T04:21:32.211Z,95.17
2018-06-30T04:22:32.190Z,94.78
2018-06-30T04:23:32.177Z,94.64
2018-06-30T04:24:32.177Z,94.31
2018-06-30T04:25:32.210Z,94.26
2018-06-30T04:26:32.148Z,94.45
2018-06-30T04:27:32.132Z,94.74
2018-06-30T04:28:32.119Z,95.70
2018-06-30T04:29:32.099Z,95.50
2018-06-30T04:30:32.098Z,95.21
2018-06-30T04:31:32.091Z,95.41
2018-06-30T04:32:32.077Z,95.60
2018-06-30T04:33:32.049Z,95.41
2018-06-30T04:34:32.040Z,94.45
2018-06-30T04:35:32.040Z,94.93
2018-06-30T04:36:32.009Z,95.03
2018-06-30T04:37:32.003Z,94.74
2018-06-30T04:38:32.000Z,94.45
2018-06-30T04:39:31.971Z,94.35
2018-06-30T04:40:31.957Z,94.35
2018-06-30T04:41:31.962Z,93.97
2018-06-30T04:42:31.932Z,94.31
2018-06-30T04:43:31.924Z,94.31
2018-06-30T04:44:31.913Z,93.54
2018-06-30T04:45:31.897Z,93.44
2018-06-30T04:46:31.887Z,93.49
2018-06-30T04:47:31.883Z,93.34
2018-06-30T04:48:31.852Z,93.34
2018-06-30T04:49:31.849Z,93.30
2018-06-30T04:50:31.833Z,93.05
2018-06-30T04:51:31.841Z,92.96
2018-06-30T04:52:31.825Z,92.29
2018-06-30T04:53:31.795Z,92.19
2018-06-30T04:54:31.777Z,92.19
2018-06-30T04:55:31.783Z,92.10
2018-06-30T04:56:31.752Z,91.81
2018-06-30T04:57:31.774Z,91.52
2018-06-30T04:58:31.757Z,91.52
2018-06-30T04:59:31.722Z,91.04
2018-06-30T05:00:31.696Z,91.42
2018-06-30T05:01:31.688Z,90.84
2018-06-30T05:02:31.699Z,91.23
2018-06-30T05:03:31.696Z,90.75
2018-06-30T05:04:31.671Z,90.17
2018-06-30T05:06:31.624Z,89.60
2018-06-30T05:07:31.620Z,88.83
2018-06-30T05:08:31.610Z,89.50
2018-06-30T05:09:31.748Z,88.73
2018-06-30T05:10:31.582Z,88.83
2018-06-30T05:11:31.565Z,89.12
2018-06-30T05:12:31.562Z,89.12
2018-06-30T05:13:31.541Z,89.12
2018-06-30T05:14:31.526Z,88.64
2018-06-30T05:15:31.504Z,88.35
2018-06-30T05:16:31.493Z,88.54
2018-06-30T05:17:31.486Z,88.16
2018-06-30T05:18:31.466Z,87.58
2018-06-30T05:19:31.449Z,87.39
2018-06-30T05:20:31.453Z,87.39
2018-06-30T05:21:31.441Z,87.58
2018-06-30T05:22:31.423Z,86.72
2018-06-30T05:23:31.423Z,86.72
2018-06-30T05:24:31.399Z,87.29
2018-06-30T05:25:31.467Z,87.01
2018-06-30T05:26:31.374Z,86.81
2018-06-30T05:27:31.352Z,86.81
2018-06-30T05:28:31.355Z,85.89
2018-06-30T05:29:31.337Z,85.75
2018-06-30T05:30:31.324Z,85.18
2018-06-30T05:31:31.297Z,85.47
2018-06-30T05:32:31.305Z,85.08
2018-06-30T05:33:31.363Z,85.13
2018-06-30T05:34:31.286Z,84.84
2018-06-30T05:35:31.245Z,84.55
2018-06-30T05:36:31.280Z,84.64
2018-06-30T05:37:31.224Z,83.87
2018-06-30T05:38:31.247Z,84.26
2018-06-30T05:39:31.223Z,83.87
2018-06-30T05:40:31.200Z,84.17
2018-06-30T05:41:31.212Z,84.07
2018-06-30T05:42:31.170Z,83.69
2018-06-30T05:43:31.158Z,83.11
2018-06-30T05:44:31.153Z,83.30
2018-06-30T05:45:31.147Z,83.69
2018-06-30T05:46:31.107Z,83.01
2018-06-30T05:47:31.108Z,82.63
2018-06-30T05:48:31.159Z,82.53
2018-06-30T05:49:31.077Z,83.20
2018-06-30T05:50:31.047Z,83.20
2018-06-30T05:51:31.123Z,82.73
2018-06-30T05:52:31.038Z,81.86
2018-06-30T05:53:31.033Z,81.57
2018-06-30T05:54:31.021Z,81.38
2018-06-30T05:55:30.995Z,82.15
2018-06-30T05:56:30.979Z,82.15
2018-06-30T05:57:30.975Z,80.71
2018-06-30T05:58:30.956Z,80.32
2018-06-30T05:59:30.987Z,80.13
2018-06-30T06:00:30.974Z,79.40
2018-06-30T06:01:30.921Z,79.46
2018-06-30T06:02:30.910Z,79.30
2018-06-30T06:03:30.893Z,79.02
2018-06-30T06:04:30.897Z,79.21
2018-06-30T06:05:30.872Z,79.50
2018-06-30T06:06:30.897Z,79.02
2018-06-30T06:07:30.833Z,78.83
2018-06-30T06:08:30.836Z,78.15
2018-06-30T06:09:30.821Z,77.38
2018-06-30T06:10:30.799Z,77.38
2018-06-30T06:11:30.783Z,77.19
2018-06-30T06:12:30.776Z,76.61
2018-06-30T06:13:30.760Z,76.71
2018-06-30T06:14:30.774Z,75.59
2018-06-30T06:15:30.756Z,74.38
2018-06-30T06:16:30.732Z,72.97
2018-06-30T06:17:30.709Z,73.16
2018-06-30T06:18:30.708Z,72.11
2018-06-30T06:19:30.707Z,71.43
2018-06-30T06:20:30.689Z,71.66
2018-06-30T06:21:30.671Z,71.18
2018-06-30T06:22:30.657Z,70.31
2018-06-30T06:23:30.648Z,69.77
2018-06-30T06:24:30.648Z,69.09
2018-06-30T06:25:30.631Z,68.52
2018-06-30T06:26:30.623Z,67.40
2018-06-30T06:27:30.666Z,66.46
2018-06-30T06:28:30.585Z,64.92
2018-06-30T06:29:30.565Z,63.79
2018-06-30T06:30:30.575Z,63.02
2018-06-30T06:31:30.563Z,62.37
2018-06-30T06:32:30.600Z,61.63
2018-06-30T06:33:30.520Z,60.05
2018-06-30T06:34:30.510Z,58.24
2018-06-30T06:35:30.509Z,55.10
2018-06-30T06:36:30.524Z,52.59
2018-06-30T06:37:30.490Z,49.37
2018-06-30T06:38:30.455Z,46.88
2018-06-30T06:39:30.480Z,45.64
2018-06-30T06:40:30.518Z,43.74
2018-06-30T06:41:30.432Z,41.75
2018-06-30T06:42:30.448Z,39.78
2018-06-30T06:43:30.421Z,37.18
2018-06-30T06:44:30.414Z,36.35
2018-06-30T06:45:30.425Z,34.52
2018-06-30T06:46:30.445Z,33.46
2018-06-30T06:47:30.367Z,33.44
2018-06-30T06:48:30.422Z,33.51
2018-06-30T06:49:30.374Z,33.69
2018-06-30T06:50:30.359Z,32.86
2018-06-30T06:51:30.374Z,31.73
2018-06-30T06:52:30.401Z,30.05
2018-06-30T06:53:30.328Z,30.91
2018-06-30T06:54:30.359Z,31.22
2018-06-30T06:55:33.383Z,31.60
2018-06-30T06:56:30.308Z,31.48
2018-06-30T06:57:30.324Z,31.61
2018-06-30T06:58:30.319Z,30.07
2018-06-30T06:59:30.273Z,29.11
2018-06-30T07:00:30.316Z,28.34
2018-06-30T07:01:30.260Z,27.86
2018-06-30T07:02:30.314Z,27.86
2018-06-30T07:03:30.243Z,27.26
2018-06-30T07:04:30.296Z,27.95
2018-06-30T07:05:30.236Z,29.35
2018-06-30T07:06:30.224Z,30.43
2018-06-30T07:07:30.260Z,29.20
2018-06-30T07:08:30.203Z,28.34
2018-06-30T07:09:30.229Z,27.27
2018-06-30T07:10:30.210Z,27.25
2018-06-30T07:11:30.231Z,29.75
2018-06-30T07:12:30.203Z,30.88
2018-06-30T07:13:30.193Z,32.89
2018-06-30T07:14:30.175Z,33.58
2018-06-30T07:15:30.195Z,34.34
2018-06-30T07:16:30.153Z,33.58
2018-06-30T07:17:30.156Z,32.34
2018-06-30T07:18:30.156Z,31.10
2018-06-30T07:19:30.159Z,29.94
2018-06-30T07:20:30.177Z,29.47
2018-06-30T07:21:30.123Z,29.38
2018-06-30T07:22:30.145Z,28.99
2018-06-30T07:23:30.187Z,29.09
2018-06-30T07:24:30.143Z,28.61
2018-06-30T07:25:30.193Z,29.17
2018-06-30T07:26:30.142Z,30.40
2018-06-30T07:27:30.107Z,31.27
2018-06-30T07:28:30.129Z,31.96
2018-06-30T07:29:30.093Z,31.58
2018-06-30T07:30:30.102Z,31.76
2018-06-30T07:31:30.085Z,31.38
2018-06-30T07:32:30.080Z,31.48
2018-06-30T07:33:30.101Z,30.71
2018-06-30T07:34:30.104Z,30.62
2018-06-30T07:35:30.099Z,30.52
2018-06-30T07:36:30.084Z,30.02
2018-06-30T07:37:30.117Z,30.99
2018-06-30T07:38:30.048Z,30.24
2018-06-30T07:39:30.054Z,29.37
2018-06-30T07:40:30.067Z,29.68
2018-06-30T07:41:30.067Z,28.99
2018-06-30T07:42:30.220Z,30.22
2018-06-30T07:43:30.085Z,31.17
2018-06-30T07:44:30.191Z,31.86
2018-06-30T07:45:30.271Z,32.23
2018-06-30T07:46:30.088Z,32.61
2018-06-30T07:47:30.065Z,32.81
2018-06-30T07:48:30.057Z,33.09
2018-06-30T07:49:30.011Z,33.95
2018-06-30T07:50:30.076Z,35.09
2018-06-30T07:51:30.014Z,35.84
2018-06-30T07:52:30.026Z,35.74
2018-06-30T07:53:30.008Z,35.74
2018-06-30T07:54:30.026Z,36.13
2018-06-30T07:55:30.070Z,36.60
2018-06-30T07:56:29.995Z,36.60
2018-06-30T07:57:29.995Z,37.54
2018-06-30T07:58:30.038Z,38.30
2018-06-30T07:59:29.997Z,38.69
2018-06-30T08:00:29.982Z,39.75
2018-06-30T08:01:29.967Z,40.68
2018-06-30T08:02:29.973Z,41.26
2018-06-30T08:03:30.003Z,42.02
2018-06-30T08:04:30.018Z,42.50
2018-06-30T08:05:30.025Z,42.29
2018-06-30T08:06:30.035Z,43.63
2018-06-30T08:07:29.993Z,44.48
2018-06-30T08:08:30.000Z,45.82
2018-06-30T08:09:29.958Z,46.11
2018-06-30T08:10:29.968Z,45.72
2018-06-30T08:11:29.954Z,45.61
2018-06-30T08:12:29.949Z,45.61
2018-06-30T08:13:29.958Z,46.16
2018-06-30T08:14:29.945Z,47.11
2018-06-30T08:15:29.948Z,47.50
2018-06-30T08:16:29.950Z,47.57
2018-06-30T08:17:29.943Z,48.06
2018-06-30T08:18:29.945Z,47.36
2018-06-30T08:19:29.931Z,47.84
2018-06-30T08:20:29.981Z,48.30
2018-06-30T08:21:29.952Z,48.69
2018-06-30T08:22:29.950Z,49.07
2018-06-30T08:23:29.931Z,49.07
2018-06-30T08:24:29.978Z,49.65
2018-06-30T08:25:29.943Z,49.85
2018-06-30T08:26:30.005Z,49.95
2018-06-30T08:27:29.937Z,49.77
2018-06-30T08:28:30.001Z,48.90
2018-06-30T08:29:30.015Z,48.79
2018-06-30T08:30:29.942Z,49.07
2018-06-30T08:31:29.908Z,49.56
2018-06-30T08:32:29.909Z,50.02
2018-06-30T08:33:29.900Z,49.70
2018-06-30T08:34:30.090Z,49.60
2018-06-30T08:35:29.886Z,49.60
2018-06-30T08:36:29.889Z,50.28
2018-06-30T08:37:29.887Z,51.15
2018-06-30T08:38:29.892Z,50.09
2018-06-30T08:39:29.889Z,49.51
2018-06-30T08:40:29.859Z,49.80
2018-06-30T08:41:29.857Z,48.44
2018-06-30T08:42:29.848Z,48.74
2018-06-30T08:43:29.910Z,49.02
2018-06-30T08:44:29.912Z,49.80
2018-06-30T08:45:29.945Z,49.49
2018-06-30T08:46:29.843Z,48.93
2018-06-30T08:47:29.799Z,49.02
2018-06-30T08:48:29.801Z,47.96
2018-06-30T08:49:29.795Z,48.25
2018-06-30T08:50:29.792Z,48.35
2018-06-30T08:51:29.826Z,47.96
2018-06-30T08:52:29.798Z,47.96
2018-06-30T08:53:29.777Z,47.48
2018-06-30T08:54:29.775Z,48.06
2018-06-30T08:55:29.797Z,48.64
2018-06-30T08:56:29.796Z,48.06
2018-06-30T08:57:29.749Z,48.03
2018-06-30T08:58:29.728Z,48.81
2018-06-30T08:59:29.749Z,49.02
2018-06-30T09:00:29.720Z,48.93
2018-06-30T09:01:29.698Z,48.25
2018-06-30T09:02:30.549Z,48.16
2018-06-30T09:03:29.736Z,48.16
2018-06-30T09:04:29.678Z,48.54
2018-06-30T09:05:29.678Z,47.86
2018-06-30T09:06:29.711Z,47.86
2018-06-30T09:07:29.663Z,47.67
2018-06-30T09:08:29.664Z,48.06
2018-06-30T09:09:29.647Z,47.86
2018-06-30T09:10:29.629Z,48.35
2018-06-30T09:11:29.610Z,47.09
2018-06-30T09:12:29.612Z,46.80
2018-06-30T09:13:29.604Z,46.90
2018-06-30T09:14:29.591Z,46.51
2018-06-30T09:15:29.612Z,46.61
2018-06-30T09:16:29.627Z,46.80
2018-06-30T09:17:29.591Z,45.93
2018-06-30T09:18:29.556Z,45.83
2018-06-30T09:19:29.556Z,46.25
2018-06-30T09:20:29.537Z,46.42
2018-06-30T09:21:29.557Z,47.09
2018-06-30T09:22:29.527Z,46.61
2018-06-30T09:23:29.545Z,47.41
2018-06-30T09:24:29.505Z,47.02
2018-06-30T09:25:29.523Z,46.25
2018-06-30T09:26:29.491Z,46.34
2018-06-30T09:27:29.472Z,46.15
2018-06-30T09:28:29.475Z,45.76
2018-06-30T09:29:29.514Z,45.95
2018-06-30T09:31:29.434Z,46.05
2018-06-30T09:32:29.431Z,46.44
2018-06-30T09:33:29.435Z,43.63
2018-06-30T09:34:29.442Z,42.18
2018-06-30T09:35:29.397Z,40.92
2018-06-30T09:36:29.409Z,41.89
2018-06-30T09:37:29.479Z,42.96
2018-06-30T09:38:29.383Z,42.57
2018-06-30T09:39:29.385Z,43.44
2018-06-30T09:40:29.394Z,43.24
2018-06-30T09:41:29.351Z,43.34
2018-06-30T09:42:29.347Z,42.47
2018-06-30T09:43:29.334Z,42.47
2018-06-30T09:44:29.417Z,42.30
2018-06-30T09:45:29.315Z,41.72
2018-06-30T09:46:29.298Z,40.56
2018-06-30T09:47:29.300Z,40.92
2018-06-30T09:48:29.330Z,40.83
2018-06-30T09:49:29.279Z,40.65
2018-06-30T09:50:29.267Z,39.59
2018-06-30T09:51:29.254Z,38.13
2018-06-30T09:52:29.254Z,38.23
2018-06-30T09:53:29.289Z,38.43
2018-06-30T09:54:29.238Z,38.04
2018-06-30T09:55:29.229Z,37.26
2018-06-30T09:56:29.224Z,37.46
2018-06-30T09:57:29.216Z,37.85
2018-06-30T09:58:29.257Z,37.77
2018-06-30T09:59:29.201Z,36.99
2018-06-30T10:00:29.186Z,37.26
2018-06-30T10:01:29.160Z,36.10
2018-06-30T10:02:29.281Z,35.52
2018-06-30T10:03:29.163Z,35.42
2018-06-30T10:04:29.162Z,35.33
2018-06-30T10:05:29.132Z,35.42
2018-06-30T10:06:29.141Z,34.77
2018-06-30T10:07:29.118Z,33.89
2018-06-30T10:08:29.116Z,32.82
2018-06-30T10:09:29.185Z,32.42
2018-06-30T10:10:29.105Z,32.62
2018-06-30T10:11:29.187Z,32.42
2018-06-30T10:12:29.189Z,32.54
2018-06-30T10:13:29.085Z,31.76
2018-06-30T10:14:29.074Z,31.28
2018-06-30T10:15:29.048Z,31.18
2018-06-30T10:16:29.045Z,31.47
2018-06-30T10:17:29.076Z,32.24
2018-06-30T10:18:29.024Z,31.96
2018-06-30T10:19:29.065Z,32.54
2018-06-30T10:20:28.993Z,32.82
2018-06-30T10:21:28.991Z,33.02
2018-06-30T10:22:28.979Z,33.33
2018-06-30T10:23:28.987Z,33.42
2018-06-30T10:24:28.973Z,34.11
2018-06-30T10:25:28.984Z,34.39
2018-06-30T10:26:28.939Z,34.49
2018-06-30T10:27:28.956Z,35.46
2018-06-30T10:28:28.918Z,33.23
2018-06-30T10:29:28.924Z,32.44
2018-06-30T10:30:28.914Z,32.07
2018-06-30T10:31:28.917Z,31.39
2018-06-30T10:32:28.893Z,30.60
2018-06-30T10:33:28.883Z,31.18
2018-06-30T10:34:28.904Z,31.76
2018-06-30T10:35:28.881Z,32.54
2018-06-30T10:36:28.876Z,33.12
2018-06-30T10:37:28.914Z,33.51
2018-06-30T10:38:28.864Z,33.81
2018-06-30T10:39:28.831Z,33.33
2018-06-30T10:40:28.812Z,33.23
2018-06-30T10:41:28.825Z,33.04
2018-06-30T10:42:28.833Z,33.04
2018-06-30T10:43:28.793Z,32.26
2018-06-30T10:44:28.874Z,31.68
2018-06-30T10:45:28.801Z,31.87
2018-06-30T10:46:28.761Z,31.87
2018-06-30T10:47:28.761Z,32.65
2018-06-30T10:48:28.755Z,32.84
2018-06-30T10:49:28.751Z,33.41
2018-06-30T10:50:28.769Z,33.04
2018-06-30T10:51:28.746Z,33.14
2018-06-30T10:52:28.750Z,33.91
2018-06-30T10:53:28.709Z,33.04
2018-06-30T10:54:28.714Z,31.68
2018-06-30T10:55:31.712Z,31.87
2018-06-30T10:56:28.679Z,32.26
2018-06-30T10:57:28.669Z,32.07
2018-06-30T10:58:28.655Z,32.26
2018-06-30T10:59:28.664Z,32.84
2018-06-30T11:00:28.740Z,33.15
2018-06-30T11:01:28.648Z,33.83
2018-06-30T11:02:28.637Z,33.92
2018-06-30T11:03:28.642Z,33.92
2018-06-30T11:04:28.809Z,32.57
2018-06-30T11:05:28.621Z,31.49
2018-06-30T11:06:28.590Z,31.20
2018-06-30T11:07:28.583Z,30.54
2018-06-30T11:08:28.617Z,29.36
2018-06-30T11:09:28.586Z,29.74
2018-06-30T11:10:28.594Z,30.82
2018-06-30T11:11:28.541Z,31.59
2018-06-30T11:12:28.582Z,31.97
2018-06-30T11:13:28.541Z,32.36
2018-06-30T11:14:28.579Z,33.06
2018-06-30T11:15:28.534Z,32.86
2018-06-30T11:16:28.518Z,33.15
2018-06-30T11:17:28.513Z,33.64
2018-06-30T11:18:28.489Z,33.44
2018-06-30T11:19:28.489Z,32.87
2018-06-30T11:20:28.495Z,32.96
2018-06-30T11:21:28.472Z,32.67
2018-06-30T11:22:28.497Z,31.97
2018-06-30T11:23:28.459Z,31.87
2018-06-30T11:24:28.473Z,32.07
2018-06-30T11:25:28.480Z,32.36
2018-06-30T11:26:28.429Z,31.60
2018-06-30T11:27:28.410Z,31.59
2018-06-30T11:28:28.434Z,31.59
2018-06-30T11:29:29.099Z,31.49
2018-06-30T11:30:28.383Z,31.78
2018-06-30T11:31:28.374Z,31.89
2018-06-30T11:32:28.388Z,31.60
2018-06-30T11:33:28.387Z,32.09
2018-06-30T11:34:28.393Z,31.29
2018-06-30T11:35:28.382Z,31.49
2018-06-30T11:36:28.352Z,32.18
2018-06-30T11:37:28.353Z,31.79
2018-06-30T11:38:28.332Z,31.41
2018-06-30T11:39:28.329Z,31.02
2018-06-30T11:40:28.345Z,30.63
2018-06-30T11:41:28.295Z,30.55
2018-06-30T11:42:28.330Z,30.44
2018-06-30T11:43:28.282Z,31.02
2018-06-30T11:44:28.270Z,31.12
2018-06-30T11:45:28.266Z,31.23
2018-06-30T11:46:28.274Z,30.94
2018-06-30T11:47:28.256Z,30.35
2018-06-30T11:48:28.242Z,30.55
2018-06-30T11:49:28.241Z,30.35
2018-06-30T11:50:28.237Z,29.97
2018-06-30T11:51:28.213Z,29.85
2018-06-30T11:52:28.215Z,29.66
2018-06-30T11:53:28.199Z,29.95
2018-06-30T11:54:28.200Z,29.37
2018-06-30T11:55:28.190Z,29.68
2018-06-30T11:56:28.244Z,28.90
2018-06-30T11:57:28.163Z,28.41
2018-06-30T11:58:28.142Z,28.51
2018-06-30T11:59:28.147Z,28.20
2018-06-30T12:00:28.155Z,28.51
2018-06-30T12:01:28.190Z,28.32
2018-06-30T12:02:28.125Z,28.22
2018-06-30T12:03:28.147Z,28.32
2018-06-30T12:04:28.122Z,28.13
2018-06-30T12:05:28.101Z,27.93
2018-06-30T12:06:28.099Z,27.64
2018-06-30T12:07:28.099Z,27.83
2018-06-30T12:08:28.091Z,27.93
2018-06-30T12:09:28.075Z,27.92
2018-06-30T12:10:28.079Z,28.11
2018-06-30T12:11:28.049Z,28.13
2018-06-30T12:12:28.039Z,28.22
2018-06-30T12:13:28.029Z,27.84
2018-06-30T12:14:28.039Z,26.87
2018-06-30T12:15:28.008Z,26.96
2018-06-30T12:16:28.030Z,27.83
2018-06-30T12:17:27.993Z,27.83
2018-06-30T12:18:27.988Z,28.03
2018-06-30T12:19:27.993Z,27.66
2018-06-30T12:20:28.040Z,26.87
2018-06-30T12:21:27.986Z,27.07
2018-06-30T12:22:27.978Z,26.97
2018-06-30T12:23:27.932Z,26.97
2018-06-30T12:24:27.969Z,27.66
2018-06-30T12:25:27.941Z,26.96
2018-06-30T12:26:28.578Z,26.78
2018-06-30T12:27:27.949Z,27.56
2018-06-30T12:28:27.940Z,26.78
2018-06-30T12:29:27.933Z,26.87
2018-06-30T12:30:27.903Z,27.07
2018-06-30T12:31:27.937Z,26.87
2018-06-30T12:32:27.891Z,27.07
2018-06-30T12:33:27.878Z,27.07
2018-06-30T12:34:27.917Z,26.97
2018-06-30T12:35:27.915Z,27.07
2018-06-30T12:36:27.870Z,26.29
2018-06-30T12:37:27.923Z,25.81
2018-06-30T12:38:27.895Z,26.29
2018-06-30T12:39:27.823Z,26.39
2018-06-30T12:40:27.799Z,26.49
2018-06-30T12:41:27.856Z,26.29
2018-06-30T12:42:27.855Z,26.39
2018-06-30T12:43:27.796Z,26.29
2018-06-30T12:44:27.807Z,26.49
2018-06-30T12:45:27.792Z,26.87
2018-06-30T12:46:27.797Z,26.87
2018-06-30T12:47:27.886Z,26.49
2018-06-30T12:48:27.941Z,26.49
2018-06-30T12:49:27.773Z,26.29
2018-06-30T12:50:27.724Z,26.39
2018-06-30T12:51:27.749Z,26.49
2018-06-30T12:52:27.699Z,26.01
2018-06-30T12:53:27.698Z,25.42
2018-06-30T12:54:27.764Z,26.20